This is the latest recevied weather packets stored in our database for station/object WA1TYB-13. If no packets are shown the sender has not sent any weather packets the latest 1 day(s).
| Time | Temp. | Humidity | Pressure | Rain* | Wind** | Luminosity | Snow |
|---|---|---|---|---|---|---|---|
| 1778092223 | 12.78° C | 32% | 1017 hPa | 0 mm | - | 623 W/m² | - |
| 1778090101 | 11.11° C | 36% | 1017.8 hPa | 0 mm | - | 669 W/m² | - |
| 1778088581 | 10.56° C | 37% | 1018.2 hPa | 0 mm | - | 686 W/m² | - |
| 1778087672 | 10° C | 38% | 1018.4 hPa | 0 mm | - | 701 W/m² | - |
| 1778087370 | 9.44° C | 40% | 1018.2 hPa | 0 mm | - | 685 W/m² | - |
| 1778086153 | 8.89° C | 41% | 1018.7 hPa | 0 mm | - | 634 W/m² | - |
| 1778084937 | 8.33° C | 43% | 1019.3 hPa | 0 mm | - | 590 W/m² | - |
| 1778084030 | 7.22° C | 46% | 1019.4 hPa | 0 mm | - | 544 W/m² | - |
| 1778082819 | 6.67° C | 47% | 1019.8 hPa | 0 mm | - | 455 W/m² | - |
| 1778081394 | 6.11° C | 53% | 1019.7 hPa | 0 mm | - | 417 W/m² | - |
| 1778079577 | 4.44° C | 56% | 1020.3 hPa | 0 mm | - | 285 W/m² | - |
| 1778079273 | 4.44° C | 58% | 1020.5 hPa | 0 mm | - | 285 W/m² | - |
| 1778078971 | 3.89° C | 60% | 1020.5 hPa | 0 mm | - | 284 W/m² | - |
| 1778076854 | 2.22° C | 66% | 1021.2 hPa | 0 mm | - | 131 W/m² | - |
| 1778076552 | 1.11° C | 69% | 1021.2 hPa | 0 mm | - | 56 W/m² | - |
| 1778074125 | -1.11° C | 76% | 1021.2 hPa | 0 mm | - | 35 W/m² | - |
| 1778073822 | -1.67° C | 77% | 1021.3 hPa | 0 mm | - | 32 W/m² | - |
| 1778072914 | -2.22° C | 75% | 1020.9 hPa | 0 mm | - | 28 W/m² | - |
| 1778072610 | -2.22° C | 76% | 1020.8 hPa | 0 mm | - | 34 W/m² | - |
| 1778072308 | -2.78° C | 76% | 1021.3 hPa | 0 mm | - | 26 W/m² | - |
| 1778072006 | -2.78° C | 78% | 1020.9 hPa | 0 mm | - | 23 W/m² | - |
| 1778071401 | -3.33° C | 79% | 1020.9 hPa | 0 mm | - | 18 W/m² | - |
| 1778070797 | -4.44° C | 79% | 1020.9 hPa | 0 mm | - | 14 W/m² | - |
| 1778069889 | -3.89° C | 80% | 1021.1 hPa | 0 mm | - | 6 W/m² | - |
| 1778068376 | -4.44° C | 79% | 1020.9 hPa | 0 mm | - | 0 W/m² | - |
* Rain latest hour (hover to see other rain measurements)
** Current wind speed in m/s (hover to see current wind gust speed)